sensor_id;sensor_type;location;lat;lon;timestamp;pressure;altitude;pressure_sealevel;temperature;humidity
4143;BME280;2085;51.052;6.958;2022-08-11T00:01:36;101790.19;;;21.03;41.66
4143;BME280;2085;51.052;6.958;2022-08-11T00:04:09;101788.69;;;20.99;41.88
4143;BME280;2085;51.052;6.958;2022-08-11T00:06:38;101781.88;;;20.94;41.80
4143;BME280;2085;51.052;6.958;2022-08-11T00:09:08;101791.00;;;20.92;41.89
4143;BME280;2085;51.052;6.958;2022-08-11T00:11:37;101784.19;;;20.88;41.79
4143;BME280;2085;51.052;6.958;2022-08-11T00:14:18;101782.72;;;20.84;42.19
4143;BME280;2085;51.052;6.958;2022-08-11T00:16:53;101780.38;;;20.79;42.12
4143;BME280;2085;51.052;6.958;2022-08-11T00:19:22;101782.53;;;20.74;42.27
4143;BME280;2085;51.052;6.958;2022-08-11T00:21:49;101784.72;;;20.69;41.89
4143;BME280;2085;51.052;6.958;2022-08-11T00:24:17;101785.16;;;20.63;42.28
4143;BME280;2085;51.052;6.958;2022-08-11T00:26:48;101785.63;;;20.57;42.20
4143;BME280;2085;51.052;6.958;2022-08-11T00:29:15;101781.59;;;20.52;42.07
4143;BME280;2085;51.052;6.958;2022-08-11T00:31:44;101777.66;;;20.44;42.16
4143;BME280;2085;51.052;6.958;2022-08-11T00:34:13;101777.03;;;20.41;42.40
4143;BME280;2085;51.052;6.958;2022-08-11T00:36:45;101779.94;;;20.38;42.57
4143;BME280;2085;51.052;6.958;2022-08-11T00:39:13;101773.13;;;20.34;42.75
4143;BME280;2085;51.052;6.958;2022-08-11T00:41:44;101772.50;;;20.30;42.57
4143;BME280;2085;51.052;6.958;2022-08-11T00:44:29;101774.38;;;20.28;42.48
4143;BME280;2085;51.052;6.958;2022-08-11T00:47:06;101775.47;;;20.26;42.59
4143;BME280;2085;51.052;6.958;2022-08-11T00:49:45;101768.66;;;20.22;42.84
4143;BME280;2085;51.052;6.958;2022-08-11T00:52:35;101775.06;;;20.19;42.69
4143;BME280;2085;51.052;6.958;2022-08-11T01:01:08;101782.91;;;20.10;42.63
4143;BME280;2085;51.052;6.958;2022-08-11T01:04:14;101781.53;;;20.04;42.99
4143;BME280;2085;51.052;6.958;2022-08-11T01:10:13;101790.97;;;19.97;42.80
4143;BME280;2085;51.052;6.958;2022-08-11T01:13:00;101775.25;;;19.92;42.80
4143;BME280;2085;51.052;6.958;2022-08-11T01:15:57;101779.03;;;19.90;42.98
4143;BME280;2085;51.052;6.958;2022-08-11T01:31:40;101779.81;;;19.54;43.48
4143;BME280;2085;51.052;6.958;2022-08-11T01:40:56;101776.69;;;19.35;43.57
4143;BME280;2085;51.052;6.958;2022-08-11T01:44:01;101777.97;;;19.29;43.68
4143;BME280;2085;51.052;6.958;2022-08-11T01:46:52;101778.28;;;19.25;43.69
4143;BME280;2085;51.052;6.958;2022-08-11T01:49:29;101772.31;;;19.21;43.84
4143;BME280;2085;51.052;6.958;2022-08-11T01:52:07;101777.97;;;19.16;43.76
4143;BME280;2085;51.052;6.958;2022-08-11T01:54:42;101777.34;;;19.13;43.97
4143;BME280;2085;51.052;6.958;2022-08-11T01:57:25;101774.75;;;19.11;44.05
4143;BME280;2085;51.052;6.958;2022-08-11T02:00:06;101775.84;;;19.09;44.17
4143;BME280;2085;51.052;6.958;2022-08-11T02:02:40;101784.91;;;19.06;44.17
4143;BME280;2085;51.052;6.958;2022-08-11T02:05:25;101781.59;;;19.03;44.09
4143;BME280;2085;51.052;6.958;2022-08-11T02:08:00;101776.47;;;19.00;44.12
4143;BME280;2085;51.052;6.958;2022-08-11T02:10:34;101779.31;;;18.97;44.07
4143;BME280;2085;51.052;6.958;2022-08-11T02:13:41;101774.22;;;18.94;44.13
4143;BME280;2085;51.052;6.958;2022-08-11T02:16:16;101780.72;;;18.90;44.10
4143;BME280;2085;51.052;6.958;2022-08-11T02:18:51;101782.63;;;18.88;44.19
4143;BME280;2085;51.052;6.958;2022-08-11T02:21:44;101788.09;;;18.86;44.31
4143;BME280;2085;51.052;6.958;2022-08-11T02:24:34;101783.69;;;18.85;44.26
4143;BME280;2085;51.052;6.958;2022-08-11T02:27:13;101786.47;;;18.84;44.25
4143;BME280;2085;51.052;6.958;2022-08-11T02:29:51;101786.59;;;18.82;44.46
4143;BME280;2085;51.052;6.958;2022-08-11T02:32:24;101785.91;;;18.79;44.50
4143;BME280;2085;51.052;6.958;2022-08-11T02:35:17;101776.63;;;18.71;44.73
4143;BME280;2085;51.052;6.958;2022-08-11T02:37:50;101777.88;;;18.66;44.53
4143;BME280;2085;51.052;6.958;2022-08-11T02:40:28;101777.53;;;18.58;44.59
4143;BME280;2085;51.052;6.958;2022-08-11T02:43:09;101780.69;;;18.50;44.77
4143;BME280;2085;51.052;6.958;2022-08-11T02:46:00;101777.56;;;18.44;45.05
4143;BME280;2085;51.052;6.958;2022-08-11T02:48:39;101783.19;;;18.39;45.00
4143;BME280;2085;51.052;6.958;2022-08-11T02:51:36;101779.25;;;18.32;44.95
4143;BME280;2085;51.052;6.958;2022-08-11T02:54:14;101781.22;;;18.28;45.26
4143;BME280;2085;51.052;6.958;2022-08-11T02:56:50;101778.75;;;18.25;45.21
4143;BME280;2085;51.052;6.958;2022-08-11T02:59:28;101786.03;;;18.23;45.14
4143;BME280;2085;51.052;6.958;2022-08-11T03:02:48;101788.69;;;18.23;45.06
4143;BME280;2085;51.052;6.958;2022-08-11T03:05:30;101780.00;;;18.20;45.20
4143;BME280;2085;51.052;6.958;2022-08-11T03:08:07;101781.06;;;18.17;45.24
4143;BME280;2085;51.052;6.958;2022-08-11T03:10:43;101781.47;;;18.11;45.23
4143;BME280;2085;51.052;6.958;2022-08-11T03:13:36;101788.03;;;18.06;45.32
4143;BME280;2085;51.052;6.958;2022-08-11T03:16:25;101790.16;;;18.01;45.52
4143;BME280;2085;51.052;6.958;2022-08-11T03:19:20;101783.28;;;17.97;45.60
4143;BME280;2085;51.052;6.958;2022-08-11T03:21:56;101793.28;;;17.93;45.59
4143;BME280;2085;51.052;6.958;2022-08-11T03:24:30;101780.28;;;17.89;45.47
4143;BME280;2085;51.052;6.958;2022-08-11T03:27:06;101784.94;;;17.85;45.60
4143;BME280;2085;51.052;6.958;2022-08-11T03:29:38;101789.63;;;17.81;45.52
4143;BME280;2085;51.052;6.958;2022-08-11T03:32:10;101783.44;;;17.81;45.75
4143;BME280;2085;51.052;6.958;2022-08-11T03:34:47;101782.66;;;17.79;45.79
4143;BME280;2085;51.052;6.958;2022-08-11T03:37:32;101779.34;;;17.75;45.79
4143;BME280;2085;51.052;6.958;2022-08-11T03:40:35;101783.22;;;17.70;45.69
4143;BME280;2085;51.052;6.958;2022-08-11T03:43:51;101783.44;;;17.67;45.91
4143;BME280;2085;51.052;6.958;2022-08-11T03:46:27;101782.78;;;17.63;45.97
4143;BME280;2085;51.052;6.958;2022-08-11T03:49:06;101783.72;;;17.62;46.01
4143;BME280;2085;51.052;6.958;2022-08-11T03:51:47;101784.78;;;17.60;46.13
4143;BME280;2085;51.052;6.958;2022-08-11T03:54:26;101783.06;;;17.59;45.92
4143;BME280;2085;51.052;6.958;2022-08-11T04:00:16;101787.59;;;17.57;45.89
4143;BME280;2085;51.052;6.958;2022-08-11T04:03:18;101781.41;;;17.56;45.83
4143;BME280;2085;51.052;6.958;2022-08-11T04:06:22;101786.84;;;17.55;46.09
4143;BME280;2085;51.052;6.958;2022-08-11T04:09:14;101786.06;;;17.53;46.11
4143;BME280;2085;51.052;6.958;2022-08-11T04:18:35;101790.25;;;17.42;46.31
4143;BME280;2085;51.052;6.958;2022-08-11T04:21:19;101789.50;;;17.40;46.19
4143;BME280;2085;51.052;6.958;2022-08-11T04:24:15;101785.13;;;17.39;46.31
4143;BME280;2085;51.052;6.958;2022-08-11T04:27:13;101786.06;;;17.38;46.24
4143;BME280;2085;51.052;6.958;2022-08-11T04:29:55;101790.34;;;17.41;46.27
4143;BME280;2085;51.052;6.958;2022-08-11T04:32:38;101789.50;;;17.40;46.29
4143;BME280;2085;51.052;6.958;2022-08-11T04:35:23;101791.38;;;17.38;46.31
4143;BME280;2085;51.052;6.958;2022-08-11T04:38:15;101790.34;;;17.41;46.34
4143;BME280;2085;51.052;6.958;2022-08-11T04:41:13;101791.09;;;17.43;46.30
4143;BME280;2085;51.052;6.958;2022-08-11T04:50:17;101795.56;;;17.42;46.50
4143;BME280;2085;51.052;6.958;2022-08-11T04:53:28;101798.91;;;17.46;46.52
4143;BME280;2085;51.052;6.958;2022-08-11T04:56:20;101800.31;;;17.52;46.31
4143;BME280;2085;51.052;6.958;2022-08-11T05:03:00;101806.53;;;17.66;46.38
4143;BME280;2085;51.052;6.958;2022-08-11T05:06:11;101797.25;;;17.73;46.29
4143;BME280;2085;51.052;6.958;2022-08-11T05:09:06;101794.09;;;17.81;46.44
4143;BME280;2085;51.052;6.958;2022-08-11T05:14:38;101793.66;;;18.42;45.95
4143;BME280;2085;51.052;6.958;2022-08-11T05:17:33;101794.66;;;19.45;45.16
4143;BME280;2085;51.052;6.958;2022-08-11T05:20:20;101788.25;;;20.46;44.35
4143;BME280;2085;51.052;6.958;2022-08-11T05:23:06;101801.44;;;21.30;43.48
4143;BME280;2085;51.052;6.958;2022-08-11T05:25:56;101792.97;;;22.03;42.43
4143;BME280;2085;51.052;6.958;2022-08-11T05:28:52;101794.00;;;22.65;42.18
4143;BME280;2085;51.052;6.958;2022-08-11T05:31:40;101799.06;;;23.11;41.68
4143;BME280;2085;51.052;6.958;2022-08-11T05:34:27;101806.00;;;23.55;41.32
4143;BME280;2085;51.052;6.958;2022-08-11T05:37:18;101801.66;;;23.94;41.33
4143;BME280;2085;51.052;6.958;2022-08-11T05:39:48;101799.78;;;24.25;41.01
4143;BME280;2085;51.052;6.958;2022-08-11T05:42:36;101804.63;;;24.60;41.09
4143;BME280;2085;51.052;6.958;2022-08-11T05:45:22;101801.00;;;24.90;40.64
4143;BME280;2085;51.052;6.958;2022-08-11T05:48:07;101808.59;;;25.23;40.79
4143;BME280;2085;51.052;6.958;2022-08-11T05:50:52;101808.53;;;25.52;40.76
4143;BME280;2085;51.052;6.958;2022-08-11T05:53:49;101815.22;;;25.85;40.11
4143;BME280;2085;51.052;6.958;2022-08-11T05:56:41;101813.09;;;26.16;39.90
4143;BME280;2085;51.052;6.958;2022-08-11T05:59:12;101799.56;;;26.43;40.33
4143;BME280;2085;51.052;6.958;2022-08-11T06:01:41;101805.06;;;26.69;40.19
4143;BME280;2085;51.052;6.958;2022-08-11T06:04:15;101800.53;;;26.87;39.79
4143;BME280;2085;51.052;6.958;2022-08-11T06:06:51;101809.09;;;27.00;39.52
4143;BME280;2085;51.052;6.958;2022-08-11T06:09:30;101808.44;;;27.06;39.80
4143;BME280;2085;51.052;6.958;2022-08-11T06:12:00;101801.03;;;27.08;39.83
4143;BME280;2085;51.052;6.958;2022-08-11T06:14:28;101810.38;;;27.14;39.97
4143;BME280;2085;51.052;6.958;2022-08-11T06:16:59;101809.72;;;27.20;40.13
4143;BME280;2085;51.052;6.958;2022-08-11T06:19:34;101801.03;;;27.34;39.95
4143;BME280;2085;51.052;6.958;2022-08-11T06:22:03;101802.88;;;27.51;39.41
4143;BME280;2085;51.052;6.958;2022-08-11T06:24:30;101809.88;;;27.62;39.40
4143;BME280;2085;51.052;6.958;2022-08-11T06:26:59;101800.13;;;27.69;39.71
4143;BME280;2085;51.052;6.958;2022-08-11T06:29:26;101808.25;;;27.77;39.62
4143;BME280;2085;51.052;6.958;2022-08-11T06:31:57;101806.03;;;27.73;39.32
4143;BME280;2085;51.052;6.958;2022-08-11T06:34:34;101804.34;;;27.46;40.19
4143;BME280;2085;51.052;6.958;2022-08-11T06:37:15;101806.06;;;27.03;40.92
4143;BME280;2085;51.052;6.958;2022-08-11T06:39:50;101804.81;;;26.62;41.70
4143;BME280;2085;51.052;6.958;2022-08-11T06:42:34;101807.97;;;26.23;42.37
4143;BME280;2085;51.052;6.958;2022-08-11T06:45:08;101813.78;;;25.91;42.60
4143;BME280;2085;51.052;6.958;2022-08-11T06:47:43;101819.16;;;25.54;42.46
4143;BME280;2085;51.052;6.958;2022-08-11T06:50:15;101819.78;;;25.28;43.07
4143;BME280;2085;51.052;6.958;2022-08-11T06:53:02;101816.00;;;25.12;43.29
4143;BME280;2085;51.052;6.958;2022-08-11T06:55:30;101806.34;;;25.00;42.85
4143;BME280;2085;51.052;6.958;2022-08-11T06:58:19;101803.94;;;24.87;43.12
4143;BME280;2085;51.052;6.958;2022-08-11T07:01:07;101811.88;;;24.79;42.69
4143;BME280;2085;51.052;6.958;2022-08-11T07:03:39;101811.44;;;24.74;43.08
4143;BME280;2085;51.052;6.958;2022-08-11T07:06:27;101815.53;;;24.68;42.56
4143;BME280;2085;51.052;6.958;2022-08-11T07:09:12;101811.44;;;24.64;42.86
4143;BME280;2085;51.052;6.958;2022-08-11T07:12:13;101812.00;;;24.68;42.56
4143;BME280;2085;51.052;6.958;2022-08-11T07:15:05;101808.75;;;24.74;42.70
4143;BME280;2085;51.052;6.958;2022-08-11T07:17:53;101815.97;;;24.83;42.26
4143;BME280;2085;51.052;6.958;2022-08-11T07:20:39;101817.72;;;24.94;42.07
4143;BME280;2085;51.052;6.958;2022-08-11T07:23:24;101812.31;;;25.03;42.00
4143;BME280;2085;51.052;6.958;2022-08-11T07:26:12;101809.59;;;25.13;42.09
4143;BME280;2085;51.052;6.958;2022-08-11T07:28:58;101813.28;;;25.21;42.04
4143;BME280;2085;51.052;6.958;2022-08-11T07:31:30;101811.84;;;25.27;41.62
4143;BME280;2085;51.052;6.958;2022-08-11T07:34:07;101814.50;;;25.37;41.85
4143;BME280;2085;51.052;6.958;2022-08-11T07:36:41;101805.69;;;25.44;41.61
4143;BME280;2085;51.052;6.958;2022-08-11T07:39:17;101804.81;;;25.53;41.62
4143;BME280;2085;51.052;6.958;2022-08-11T07:41:45;101798.56;;;25.62;41.71
4143;BME280;2085;51.052;6.958;2022-08-11T07:44:13;101799.69;;;25.69;41.58
4143;BME280;2085;51.052;6.958;2022-08-11T07:46:43;101803.66;;;25.75;41.21
4143;BME280;2085;51.052;6.958;2022-08-11T07:49:31;101791.09;;;25.84;41.36
4143;BME280;2085;51.052;6.958;2022-08-11T07:52:17;101798.97;;;25.95;40.90
4143;BME280;2085;51.052;6.958;2022-08-11T07:54:58;101790.00;;;26.04;40.99
4143;BME280;2085;51.052;6.958;2022-08-11T07:57:26;101795.47;;;26.12;40.98
4143;BME280;2085;51.052;6.958;2022-08-11T08:00:12;101781.25;;;26.19;41.17
4143;BME280;2085;51.052;6.958;2022-08-11T08:02:57;101787.75;;;26.27;40.87
4143;BME280;2085;51.052;6.958;2022-08-11T08:05:42;101797.63;;;26.36;40.92
4143;BME280;2085;51.052;6.958;2022-08-11T08:08:29;101784.22;;;26.44;40.41
4143;BME280;2085;51.052;6.958;2022-08-11T08:11:14;101785.84;;;26.54;40.66
4143;BME280;2085;51.052;6.958;2022-08-11T08:13:59;101784.06;;;26.63;40.60
4143;BME280;2085;51.052;6.958;2022-08-11T08:16:43;101781.75;;;26.68;40.08
4143;BME280;2085;51.052;6.958;2022-08-11T08:19:28;101789.91;;;26.76;40.02
4143;BME280;2085;51.052;6.958;2022-08-11T08:21:55;101787.28;;;26.84;39.90
4143;BME280;2085;51.052;6.958;2022-08-11T08:24:23;101789.09;;;26.93;39.75
4143;BME280;2085;51.052;6.958;2022-08-11T08:26:50;101795.41;;;27.02;40.26
4143;BME280;2085;51.052;6.958;2022-08-11T08:29:30;101785.34;;;27.12;39.69
4143;BME280;2085;51.052;6.958;2022-08-11T08:32:16;101790.66;;;27.22;39.97
4143;BME280;2085;51.052;6.958;2022-08-11T08:34:43;101788.84;;;27.30;39.98
4143;BME280;2085;51.052;6.958;2022-08-11T08:37:10;101788.03;;;27.38;39.48
4143;BME280;2085;51.052;6.958;2022-08-11T08:39:38;101791.66;;;27.46;39.85
4143;BME280;2085;51.052;6.958;2022-08-11T08:42:09;101792.91;;;27.52;39.67
4143;BME280;2085;51.052;6.958;2022-08-11T08:44:40;101793.13;;;27.59;39.47
4143;BME280;2085;51.052;6.958;2022-08-11T08:47:11;101793.63;;;27.62;39.60
4143;BME280;2085;51.052;6.958;2022-08-11T08:49:44;101788.75;;;27.66;39.36
4143;BME280;2085;51.052;6.958;2022-08-11T08:52:14;101790.97;;;27.70;39.27
4143;BME280;2085;51.052;6.958;2022-08-11T08:54:45;101792.34;;;27.74;39.23
4143;BME280;2085;51.052;6.958;2022-08-11T08:57:15;101795.41;;;27.79;39.19
4143;BME280;2085;51.052;6.958;2022-08-11T08:59:46;101795.63;;;27.86;39.58
4143;BME280;2085;51.052;6.958;2022-08-11T09:02:13;101790.88;;;27.88;39.17
4143;BME280;2085;51.052;6.958;2022-08-11T09:04:44;101789.72;;;27.90;39.07
4143;BME280;2085;51.052;6.958;2022-08-11T09:07:12;101795.31;;;27.97;39.04
4143;BME280;2085;51.052;6.958;2022-08-11T09:09:41;101797.38;;;28.03;39.41
4143;BME280;2085;51.052;6.958;2022-08-11T09:12:10;101796.19;;;28.06;38.97
4143;BME280;2085;51.052;6.958;2022-08-11T09:14:38;101792.84;;;28.12;39.25
4143;BME280;2085;51.052;6.958;2022-08-11T09:17:24;101791.19;;;28.19;38.85
4143;BME280;2085;51.052;6.958;2022-08-11T09:19:54;101798.50;;;28.26;39.12
4143;BME280;2085;51.052;6.958;2022-08-11T09:22:25;101784.09;;;28.34;38.56
4143;BME280;2085;51.052;6.958;2022-08-11T09:25:09;101779.03;;;28.39;38.76
4143;BME280;2085;51.052;6.958;2022-08-11T09:27:55;101782.44;;;28.49;38.64
4143;BME280;2085;51.052;6.958;2022-08-11T09:30:23;101787.53;;;28.60;38.43
4143;BME280;2085;51.052;6.958;2022-08-11T09:32:52;101790.09;;;28.70;38.51
4143;BME280;2085;51.052;6.958;2022-08-11T09:35:25;101787.41;;;28.78;38.28
4143;BME280;2085;51.052;6.958;2022-08-11T09:37:53;101782.50;;;28.81;38.29
4143;BME280;2085;51.052;6.958;2022-08-11T09:40:40;101785.88;;;28.83;38.22
4143;BME280;2085;51.052;6.958;2022-08-11T09:43:12;101772.34;;;28.83;38.20
4143;BME280;2085;51.052;6.958;2022-08-11T09:45:58;101782.50;;;28.81;38.10
4143;BME280;2085;51.052;6.958;2022-08-11T09:48:28;101779.44;;;28.85;38.11
4143;BME280;2085;51.052;6.958;2022-08-11T09:50:57;101788.59;;;28.92;38.14
4143;BME280;2085;51.052;6.958;2022-08-11T09:53:27;101780.97;;;29.03;37.81
4143;BME280;2085;51.052;6.958;2022-08-11T09:55:55;101774.53;;;29.12;37.97
4143;BME280;2085;51.052;6.958;2022-08-11T09:58:24;101769.44;;;29.17;37.94
4143;BME280;2085;51.052;6.958;2022-08-11T10:00:55;101775.00;;;29.24;37.48
4143;BME280;2085;51.052;6.958;2022-08-11T10:03:24;101765.84;;;29.25;37.61
4143;BME280;2085;51.052;6.958;2022-08-11T10:05:54;101767.56;;;29.26;37.68
4143;BME280;2085;51.052;6.958;2022-08-11T10:08:40;101771.28;;;29.25;37.32
4143;BME280;2085;51.052;6.958;2022-08-11T10:11:10;101765.84;;;29.33;37.49
4143;BME280;2085;51.052;6.958;2022-08-11T10:13:42;101761.94;;;29.44;37.59
4143;BME280;2085;51.052;6.958;2022-08-11T10:16:25;101755.59;;;29.59;36.93
4143;BME280;2085;51.052;6.958;2022-08-11T10:18:54;101769.31;;;29.66;37.11
4143;BME280;2085;51.052;6.958;2022-08-11T10:21:25;101750.81;;;29.69;37.01
4143;BME280;2085;51.052;6.958;2022-08-11T10:23:54;101751.13;;;29.75;36.83
4143;BME280;2085;51.052;6.958;2022-08-11T10:26:41;101758.06;;;29.85;36.94
4143;BME280;2085;51.052;6.958;2022-08-11T10:29:16;101752.13;;;29.90;36.88
4143;BME280;2085;51.052;6.958;2022-08-11T10:32:02;101743.78;;;29.91;36.67
4143;BME280;2085;51.052;6.958;2022-08-11T10:34:48;101749.69;;;29.95;36.70
4143;BME280;2085;51.052;6.958;2022-08-11T10:37:16;101733.06;;;29.98;36.59
4143;BME280;2085;51.052;6.958;2022-08-11T10:39:45;101734.41;;;30.02;36.62
4143;BME280;2085;51.052;6.958;2022-08-11T10:42:13;101730.28;;;30.06;36.52
4143;BME280;2085;51.052;6.958;2022-08-11T10:44:59;101725.22;;;30.03;36.54
4143;BME280;2085;51.052;6.958;2022-08-11T10:47:29;101720.13;;;30.00;36.38
4143;BME280;2085;51.052;6.958;2022-08-11T10:50:01;101731.50;;;30.03;36.16
4143;BME280;2085;51.052;6.958;2022-08-11T10:52:48;101727.53;;;30.14;36.22
4143;BME280;2085;51.052;6.958;2022-08-11T10:55:34;101720.00;;;30.24;36.09
4143;BME280;2085;51.052;6.958;2022-08-11T10:58:20;101711.41;;;30.35;36.13
4143;BME280;2085;51.052;6.958;2022-08-11T11:01:06;101706.59;;;30.45;35.79
4143;BME280;2085;51.052;6.958;2022-08-11T11:03:35;101706.53;;;30.53;35.92
4143;BME280;2085;51.052;6.958;2022-08-11T11:06:06;101715.47;;;30.62;35.62
4143;BME280;2085;51.052;6.958;2022-08-11T11:08:40;101706.41;;;30.70;35.35
4143;BME280;2085;51.052;6.958;2022-08-11T11:11:20;101702.94;;;30.76;35.29
4143;BME280;2085;51.052;6.958;2022-08-11T11:13:49;101707.00;;;30.80;35.18
4143;BME280;2085;51.052;6.958;2022-08-11T11:16:37;101708.97;;;30.86;35.59
4143;BME280;2085;51.052;6.958;2022-08-11T11:19:23;101702.13;;;30.90;35.11
4143;BME280;2085;51.052;6.958;2022-08-11T11:21:53;101691.91;;;30.92;35.23
4143;BME280;2085;51.052;6.958;2022-08-11T11:24:47;101689.19;;;30.92;35.27
4143;BME280;2085;51.052;6.958;2022-08-11T11:27:26;101694.63;;;30.92;35.10
4143;BME280;2085;51.052;6.958;2022-08-11T11:30:01;101685.91;;;30.96;34.90
4143;BME280;2085;51.052;6.958;2022-08-11T11:32:39;101693.56;;;31.01;35.02
4143;BME280;2085;51.052;6.958;2022-08-11T11:35:29;101678.72;;;31.04;34.68
4143;BME280;2085;51.052;6.958;2022-08-11T11:38:02;101676.38;;;31.00;34.84
4143;BME280;2085;51.052;6.958;2022-08-11T11:40:34;101674.34;;;31.03;34.87
4143;BME280;2085;51.052;6.958;2022-08-11T11:43:02;101668.69;;;31.04;34.85
4143;BME280;2085;51.052;6.958;2022-08-11T11:45:30;101662.91;;;31.07;34.81
4143;BME280;2085;51.052;6.958;2022-08-11T11:47:59;101661.66;;;31.10;34.91
4143;BME280;2085;51.052;6.958;2022-08-11T11:50:28;101663.34;;;31.11;34.97
4143;BME280;2085;51.052;6.958;2022-08-11T11:52:57;101654.63;;;31.15;34.67
4143;BME280;2085;51.052;6.958;2022-08-11T11:55:26;101654.06;;;31.20;34.63
4143;BME280;2085;51.052;6.958;2022-08-11T11:57:54;101645.34;;;31.24;34.45
4143;BME280;2085;51.052;6.958;2022-08-11T12:00:39;101649.53;;;31.27;34.37
4143;BME280;2085;51.052;6.958;2022-08-11T12:03:26;101646.66;;;31.28;34.31
4143;BME280;2085;51.052;6.958;2022-08-11T12:05:53;101642.91;;;31.29;34.26
4143;BME280;2085;51.052;6.958;2022-08-11T12:08:21;101636.41;;;31.30;34.31
4143;BME280;2085;51.052;6.958;2022-08-11T12:10:52;101628.91;;;31.32;34.02
4143;BME280;2085;51.052;6.958;2022-08-11T12:13:41;101636.50;;;31.37;34.17
4143;BME280;2085;51.052;6.958;2022-08-11T12:16:08;101633.84;;;31.43;34.08
4143;BME280;2085;51.052;6.958;2022-08-11T12:18:37;101634.78;;;31.51;34.04
4143;BME280;2085;51.052;6.958;2022-08-11T12:21:06;101615.66;;;31.59;33.88
4143;BME280;2085;51.052;6.958;2022-08-11T12:23:34;101616.53;;;31.66;33.81
4143;BME280;2085;51.052;6.958;2022-08-11T12:26:20;101620.78;;;31.68;33.60
4143;BME280;2085;51.052;6.958;2022-08-11T12:29:07;101619.94;;;31.68;33.63
4143;BME280;2085;51.052;6.958;2022-08-11T12:31:36;101612.88;;;31.73;33.58
4143;BME280;2085;51.052;6.958;2022-08-11T12:34:06;101611.44;;;31.77;33.38
4143;BME280;2085;51.052;6.958;2022-08-11T12:36:36;101606.19;;;31.76;33.49
4143;BME280;2085;51.052;6.958;2022-08-11T12:39:06;101596.16;;;31.76;33.39
4143;BME280;2085;51.052;6.958;2022-08-11T12:41:34;101594.44;;;31.75;33.22
4143;BME280;2085;51.052;6.958;2022-08-11T12:44:19;101588.56;;;31.72;33.09
4143;BME280;2085;51.052;6.958;2022-08-11T12:47:07;101585.22;;;31.70;33.28
4143;BME280;2085;51.052;6.958;2022-08-11T12:49:40;101581.81;;;31.68;33.08
4143;BME280;2085;51.052;6.958;2022-08-11T12:52:30;101585.25;;;31.76;33.17
4143;BME280;2085;51.052;6.958;2022-08-11T12:55:02;101583.91;;;31.87;32.93
4143;BME280;2085;51.052;6.958;2022-08-11T12:57:34;101573.91;;;31.94;32.84
4143;BME280;2085;51.052;6.958;2022-08-11T13:00:19;101583.00;;;32.01;32.62
4143;BME280;2085;51.052;6.958;2022-08-11T13:03:06;101583.81;;;32.02;32.79
4143;BME280;2085;51.052;6.958;2022-08-11T13:05:54;101578.84;;;32.05;32.57
4143;BME280;2085;51.052;6.958;2022-08-11T13:08:23;101584.72;;;32.09;32.53
4143;BME280;2085;51.052;6.958;2022-08-11T13:10:51;101573.47;;;32.12;32.55
4143;BME280;2085;51.052;6.958;2022-08-11T13:13:37;101567.41;;;32.16;32.30
4143;BME280;2085;51.052;6.958;2022-08-11T13:16:05;101570.59;;;32.20;32.55
4143;BME280;2085;51.052;6.958;2022-08-11T13:18:33;101564.31;;;32.19;32.52
4143;BME280;2085;51.052;6.958;2022-08-11T13:21:01;101571.00;;;32.17;32.62
4143;BME280;2085;51.052;6.958;2022-08-11T13:23:28;101566.78;;;32.14;32.68
4143;BME280;2085;51.052;6.958;2022-08-11T13:25:56;101558.03;;;32.19;32.46
4143;BME280;2085;51.052;6.958;2022-08-11T13:28:23;101563.91;;;32.22;32.37
4143;BME280;2085;51.052;6.958;2022-08-11T13:30:50;101552.63;;;32.25;32.30
4143;BME280;2085;51.052;6.958;2022-08-11T13:33:40;101562.91;;;32.30;32.27
4143;BME280;2085;51.052;6.958;2022-08-11T13:36:09;101554.75;;;32.30;32.20
4143;BME280;2085;51.052;6.958;2022-08-11T13:38:37;101554.75;;;32.30;32.27
4143;BME280;2085;51.052;6.958;2022-08-11T13:41:06;101550.81;;;32.33;32.25
4143;BME280;2085;51.052;6.958;2022-08-11T13:43:54;101535.06;;;32.35;32.05
4143;BME280;2085;51.052;6.958;2022-08-11T13:46:22;101540.78;;;32.40;32.10
4143;BME280;2085;51.052;6.958;2022-08-11T13:48:50;101534.31;;;32.47;31.93
4143;BME280;2085;51.052;6.958;2022-08-11T13:51:20;101530.59;;;32.55;32.11
4143;BME280;2085;51.052;6.958;2022-08-11T13:53:59;101526.63;;;32.57;31.79
4143;BME280;2085;51.052;6.958;2022-08-11T13:56:27;101525.41;;;32.60;31.93
4143;BME280;2085;51.052;6.958;2022-08-11T13:58:55;101531.47;;;32.62;32.03
4143;BME280;2085;51.052;6.958;2022-08-11T14:01:25;101542.00;;;32.65;31.95
4143;BME280;2085;51.052;6.958;2022-08-11T14:03:54;101532.59;;;32.67;31.87
4143;BME280;2085;51.052;6.958;2022-08-11T14:06:23;101519.16;;;32.66;31.91
4143;BME280;2085;51.052;6.958;2022-08-11T14:08:51;101525.03;;;32.63;31.84
4143;BME280;2085;51.052;6.958;2022-08-11T14:11:19;101514.97;;;32.63;31.89
4143;BME280;2085;51.052;6.958;2022-08-11T14:14:04;101520.84;;;32.67;31.84
4143;BME280;2085;51.052;6.958;2022-08-11T14:16:34;101510.38;;;32.70;31.85
4143;BME280;2085;51.052;6.958;2022-08-11T14:19:06;101507.63;;;32.70;31.79
4143;BME280;2085;51.052;6.958;2022-08-11T14:21:39;101504.91;;;32.70;31.80
4143;BME280;2085;51.052;6.958;2022-08-11T14:24:25;101504.31;;;32.75;31.69
4143;BME280;2085;51.052;6.958;2022-08-11T14:26:53;101491.94;;;32.79;31.79
4143;BME280;2085;51.052;6.958;2022-08-11T14:29:21;101488.38;;;32.79;31.76
4143;BME280;2085;51.052;6.958;2022-08-11T14:31:50;101490.28;;;32.78;31.75
4143;BME280;2085;51.052;6.958;2022-08-11T14:34:18;101499.94;;;32.81;31.63
4143;BME280;2085;51.052;6.958;2022-08-11T14:36:50;101492.19;;;32.84;31.66
4143;BME280;2085;51.052;6.958;2022-08-11T14:39:21;101489.47;;;32.84;31.39
4143;BME280;2085;51.052;6.958;2022-08-11T14:41:51;101485.47;;;32.80;31.55
4143;BME280;2085;51.052;6.958;2022-08-11T14:44:37;101476.41;;;32.73;31.49
4143;BME280;2085;51.052;6.958;2022-08-11T14:47:22;101475.34;;;32.67;31.46
4143;BME280;2085;51.052;6.958;2022-08-11T14:49:53;101473.22;;;32.63;31.19
4143;BME280;2085;51.052;6.958;2022-08-11T14:52:21;101470.66;;;32.61;31.41
4143;BME280;2085;51.052;6.958;2022-08-11T14:54:51;101475.75;;;32.64;31.28
4143;BME280;2085;51.052;6.958;2022-08-11T14:57:37;101477.66;;;32.70;31.32
4143;BME280;2085;51.052;6.958;2022-08-11T15:00:07;101479.38;;;32.78;31.27